Time;durP1;ratioP1;P1;durP2;ratioP2;P2;SDS_P1;SDS_P2;PMS_P1;PMS_P2;Temp;Humidity;BMP_temperature;BMP_pressure;BME280_temperature;BME280_humidity;BME280_pressure;Samples;Min_cycle;Max_cycle;Signal;HPM_P1;HPM_P2
2022/08/22 00:00:19;;;;;;;;;;;;;;;17.95;71.06;101609.81;5074605;28;19912;-34
2022/08/22 00:02:45;;;;;;;;;;;;;;;17.96;71.06;101608.75;5075099;28;20287;-34
2022/08/22 00:05:21;;;;;;;;;;;;;;;17.95;70.76;101601.63;5074806;28;20003;-34
2022/08/22 00:07:53;;;;;;;;;;;;;;;17.93;71.22;101604.63;5074985;28;19916;-34
2022/08/22 00:10:36;;;;;;;;;;;;;;;17.92;71.23;101605.72;5075215;28;19936;-35
2022/08/22 00:13:06;;;;;;;;;;;;;;;17.94;71.41;101609.00;5074982;28;19920;-35
2022/08/22 00:15:33;;;;;;;;;;;;;;;17.95;71.22;101609.81;5074331;28;20007;-34
2022/08/22 00:18:17;;;;;;;;;;;;;;;17.95;71.41;101610.66;5074372;28;19912;-34
2022/08/22 00:20:58;;;;;;;;;;;;;;;17.95;71.74;101607.09;5074984;28;19924;-34
2022/08/22 00:23:33;;;;;;;;;;;;;;;17.95;71.39;101613.38;5074576;28;19920;-34
2022/08/22 00:26:05;;;;;;;;;;;;;;;17.96;71.42;101609.59;5074405;28;19912;-35
2022/08/22 00:28:33;;;;;;;;;;;;;;;17.97;71.76;101610.41;5074272;28;19912;-34
2022/08/22 00:31:17;;;;;;;;;;;;;;;17.96;72.11;101609.59;5074737;28;20220;-34
2022/08/22 00:33:49;;;;;;;;;;;;;;;17.97;71.75;101607.66;5074971;28;19919;-34
2022/08/22 00:36:28;;;;;;;;;;;;;;;17.95;72.32;101607.91;5073887;28;19919;-34
2022/08/22 00:39:17;;;;;;;;;;;;;;;17.95;72.15;101613.38;5074587;28;19912;-34
2022/08/22 00:41:51;;;;;;;;;;;;;;;17.95;72.18;101612.56;5052030;28;19920;-34
2022/08/22 00:44:19;;;;;;;;;;;;;;;17.93;72.32;101606.53;5051610;28;20327;-34
2022/08/22 00:47:02;;;;;;;;;;;;;;;17.93;72.54;101607.34;5052288;28;19956;-35
2022/08/22 00:49:27;;;;;;;;;;;;;;;17.95;72.21;101616.13;5051495;28;19917;-34
2022/08/22 00:52:11;;;;;;;;;;;;;;;17.97;72.20;101610.41;5052119;28;19912;-35
2022/08/22 00:54:40;;;;;;;;;;;;;;;17.96;72.60;101615.06;5051971;28;19917;-34
2022/08/22 00:57:23;;;;;;;;;;;;;;;17.95;72.51;101607.09;5051445;28;19920;-34
2022/08/22 01:00:07;;;;;;;;;;;;;;;17.95;73.17;101609.81;5051792;28;20007;-34
2022/08/22 01:02:35;;;;;;;;;;;;;;;17.93;72.66;101612.81;5051275;28;19962;-34
2022/08/22 01:05:26;;;;;;;;;;;;;;;17.93;73.12;101615.56;5051187;28;20011;-34
2022/08/22 01:08:10;;;;;;;;;;;;;;;17.90;72.77;101612.53;5051483;28;19936;-34
2022/08/22 01:10:38;;;;;;;;;;;;;;;17.88;73.69;101606.50;5051866;28;19912;-34
2022/08/22 01:13:09;;;;;;;;;;;;;;;17.85;73.81;101607.81;5051464;28;19916;-34
2022/08/22 01:15:36;;;;;;;;;;;;;;;17.82;73.15;101607.53;5051898;28;19917;-35
2022/08/22 01:18:20;;;;;;;;;;;;;;;17.81;74.02;101608.59;5055961;28;19955;-35
2022/08/22 01:20:48;;;;;;;;;;;;;;;17.77;73.54;101607.50;5073960;28;20310;-35
2022/08/22 01:23:13;;;;;;;;;;;;;;;17.75;74.48;101600.34;5073483;28;20010;-35
2022/08/22 01:25:41;;;;;;;;;;;;;;;17.73;73.65;101604.47;5073211;28;20111;-35
2022/08/22 01:28:26;;;;;;;;;;;;;;;17.72;73.78;101606.34;5073149;28;19916;-34
2022/08/22 01:31:10;;;;;;;;;;;;;;;17.69;74.10;101598.63;5073704;28;19913;-34
2022/08/22 01:33:44;;;;;;;;;;;;;;;17.68;74.03;101607.13;5074111;28;20029;-35
2022/08/22 01:36:23;;;;;;;;;;;;;;;17.67;73.85;101606.28;5073811;28;19974;-35
2022/08/22 01:38:57;;;;;;;;;;;;;;;17.67;73.85;101606.28;5073263;28;19912;-35
2022/08/22 01:41:40;;;;;;;;;;;;;;;17.69;74.35;101609.59;5073523;28;19920;-35
2022/08/22 01:44:20;;;;;;;;;;;;;;;17.69;74.32;101604.13;5071803;28;19913;-34
2022/08/22 01:46:48;;;;;;;;;;;;;;;17.67;74.23;101609.03;5073984;28;19913;-34
2022/08/22 01:49:19;;;;;;;;;;;;;;;17.66;74.26;101599.16;5073156;28;20287;-34
2022/08/22 01:52:03;;;;;;;;;;;;;;;17.64;74.48;101598.59;5073452;28;19912;-35
2022/08/22 01:54:37;;;;;;;;;;;;;;;17.65;74.73;101600.25;5073123;28;19913;-34
2022/08/22 01:57:07;;;;;;;;;;;;;;;17.65;74.55;101607.63;5073740;28;19913;-35
2022/08/22 01:59:37;;;;;;;;;;;;;;;17.63;74.39;101599.69;5073606;28;19919;-34
2022/08/22 02:02:08;;;;;;;;;;;;;;;17.64;74.60;101595.88;5073692;28;19998;-34
2022/08/22 02:04:41;;;;;;;;;;;;;;;17.63;74.55;101602.41;5073078;28;19913;-34
2022/08/22 02:07:06;;;;;;;;;;;;;;;17.64;74.61;101600.50;5073756;28;19983;-34
2022/08/22 02:09:37;;;;;;;;;;;;;;;17.64;74.84;101589.56;5073201;28;20348;-34
2022/08/22 02:12:05;;;;;;;;;;;;;;;17.64;74.73;101595.03;5073240;28;19913;-34
2022/08/22 02:14:31;;;;;;;;;;;;;;;17.62;74.76;101592.56;5073241;28;19943;-34
2022/08/22 02:17:08;;;;;;;;;;;;;;;17.61;74.70;101593.63;5073180;28;19999;-34
2022/08/22 02:19:54;;;;;;;;;;;;;;;17.59;75.42;101598.56;5072748;28;20326;-34
2022/08/22 02:22:30;;;;;;;;;;;;;;;17.61;74.96;101596.38;5068716;28;20425;-34
2022/08/22 02:25:10;;;;;;;;;;;;;;;17.60;75.15;101594.72;5072867;28;20015;-34
2022/08/22 02:27:50;;;;;;;;;;;;;;;17.60;75.53;101588.44;5073542;28;19916;-34
2022/08/22 02:30:18;;;;;;;;;;;;;;;17.61;75.25;101595.56;5072781;28;19949;-34
2022/08/22 02:32:50;;;;;;;;;;;;;;;17.60;74.99;101602.94;5074285;28;19912;-34
2022/08/22 02:35:32;;;;;;;;;;;;;;;17.59;75.21;101595.81;5076502;28;19912;-34
2022/08/22 02:38:12;;;;;;;;;;;;;;;17.58;75.35;101598.81;5076352;28;19924;-34
2022/08/22 02:40:40;;;;;;;;;;;;;;;17.57;75.33;101592.53;5076169;28;19960;-34
2022/08/22 02:43:20;;;;;;;;;;;;;;;17.61;75.62;101592.81;5076358;28;19928;-34
2022/08/22 02:45:45;;;;;;;;;;;;;;;17.61;75.67;101588.16;5076585;28;19917;-34
2022/08/22 02:48:10;;;;;;;;;;;;;;;17.59;75.23;101584.88;5076261;28;19935;-34
2022/08/22 02:50:39;;;;;;;;;;;;;;;17.58;75.43;101582.41;5076499;28;19923;-34
2022/08/22 02:53:11;;;;;;;;;;;;;;;17.57;75.39;101589.78;5076105;28;20334;-34
2022/08/22 02:55:46;;;;;;;;;;;;;;;17.57;75.79;101586.22;5076237;28;20404;-34
2022/08/22 02:58:19;;;;;;;;;;;;;;;17.56;75.35;101592.78;5075967;28;19919;-34
2022/08/22 03:00:51;;;;;;;;;;;;;;;17.54;75.61;101587.56;5075844;28;20003;-34
2022/08/22 03:03:19;;;;;;;;;;;;;;;17.53;75.89;101588.66;5075941;28;19918;-34
2022/08/22 03:05:58;;;;;;;;;;;;;;;17.53;75.70;101588.66;5076695;28;19913;-34
2022/08/22 03:08:29;;;;;;;;;;;;;;;17.51;76.15;101577.97;5076082;28;19912;-34
2022/08/22 03:11:03;;;;;;;;;;;;;;;17.49;75.93;101582.88;5076812;28;19912;-34
2022/08/22 03:13:47;;;;;;;;;;;;;;;17.50;76.18;101575.50;5076189;28;20228;-34
2022/08/22 03:16:32;;;;;;;;;;;;;;;17.50;76.04;101586.44;5076015;28;20280;-34
2022/08/22 03:19:05;;;;;;;;;;;;;;;17.47;76.26;101589.66;5075726;28;19920;-34
2022/08/22 03:21:35;;;;;;;;;;;;;;;17.44;76.61;101576.53;5075721;28;20020;-34
2022/08/22 03:24:15;;;;;;;;;;;;;;;17.44;76.68;101579.28;5075575;28;19912;-34
2022/08/22 03:26:58;;;;;;;;;;;;;;;17.41;76.42;101566.94;5075355;28;19919;-34
2022/08/22 03:29:28;;;;;;;;;;;;;;;17.39;76.37;101565.56;5075962;28;20003;-34
2022/08/22 03:32:02;;;;;;;;;;;;;;;17.38;76.53;101566.66;5075582;28;19942;-34
2022/08/22 03:34:27;;;;;;;;;;;;;;;17.36;76.91;101563.31;5075422;28;20394;-34
2022/08/22 03:37:10;;;;;;;;;;;;;;;17.34;76.82;101562.78;5075687;28;19952;-34
2022/08/22 03:39:54;;;;;;;;;;;;;;;17.32;76.98;101560.28;5075120;28;19912;-34
2022/08/22 03:42:19;;;;;;;;;;;;;;;17.31;77.03;101555.09;5075507;28;20046;-34
2022/08/22 03:44:47;;;;;;;;;;;;;;;17.30;77.21;101558.91;5074422;28;20015;-34
2022/08/22 03:47:15;;;;;;;;;;;;;;;17.27;77.30;101559.41;5074872;28;19957;-34
2022/08/22 03:49:51;;;;;;;;;;;;;;;17.24;77.06;101558.84;5075057;28;19920;-34
2022/08/22 03:52:16;;;;;;;;;;;;;;;17.24;77.39;101564.31;5075034;28;20404;-34
2022/08/22 03:54:53;;;;;;;;;;;;;;;17.21;77.09;101550.34;5074453;28;19912;-34
2022/08/22 03:57:57;;;;;;;;;;;;;;;17.18;77.26;101556.34;5075725;28;19912;-34
2022/08/22 04:00:28;;;;;;;;;;;;;;;17.14;77.09;101558.75;5052565;28;19912;-34
2022/08/22 04:03:05;;;;;;;;;;;;;;;17.13;77.33;101559.84;5053081;28;19913;-34
2022/08/22 04:05:33;;;;;;;;;;;;;;;17.05;77.86;101549.38;5052800;28;19913;-34
2022/08/22 04:08:18;;;;;;;;;;;;;;;16.99;77.76;101544.94;5052317;28;20288;-34
2022/08/22 04:10:53;;;;;;;;;;;;;;;16.97;78.00;101547.06;5052229;28;19913;-34
2022/08/22 04:13:37;;;;;;;;;;;;;;;16.93;77.98;101548.66;5052067;28;19962;-34
2022/08/22 04:16:20;;;;;;;;;;;;;;;16.86;78.51;101556.25;5053113;28;19913;-34
2022/08/22 04:19:02;;;;;;;;;;;;;;;16.82;78.66;101561.38;5052193;28;20341;-34
2022/08/22 04:21:39;;;;;;;;;;;;;;;16.80;78.15;101566.28;5052578;28;19912;-34
2022/08/22 04:24:04;;;;;;;;;;;;;;;16.76;78.35;101561.59;5052464;28;19975;-34
2022/08/22 04:26:40;;;;;;;;;;;;;;;16.69;78.66;101562.59;5052316;28;20313;-34
2022/08/22 04:29:11;;;;;;;;;;;;;;;16.66;78.36;101568.56;5052224;28;19913;-34
2022/08/22 04:31:41;;;;;;;;;;;;;;;16.65;79.16;101569.63;5068374;28;19916;-34
2022/08/22 04:34:14;;;;;;;;;;;;;;;16.62;79.11;101569.31;5074477;28;19916;-33
2022/08/22 04:36:47;;;;;;;;;;;;;;;16.62;79.21;101566.56;5074377;28;19912;-34
2022/08/22 04:39:22;;;;;;;;;;;;;;;16.60;79.30;101566.84;5074043;28;19912;-34
2022/08/22 04:41:47;;;;;;;;;;;;;;;16.60;79.46;101561.38;5074649;28;19912;-34
2022/08/22 04:44:17;;;;;;;;;;;;;;;16.62;79.45;101569.31;5074687;28;19920;-34
2022/08/22 04:46:45;;;;;;;;;;;;;;;16.63;79.43;101565.50;5074195;28;19912;-34
2022/08/22 04:49:34;;;;;;;;;;;;;;;16.63;79.72;101566.31;5074125;28;19913;-34
2022/08/22 04:52:06;;;;;;;;;;;;;;;16.66;79.69;101574.00;5035002;28;19956;-34
2022/08/22 04:54:31;;;;;;;;;;;;;;;16.68;79.74;101576.47;5051987;28;20378;-39
2022/08/22 04:57:06;;;;;;;;;;;;;;;16.70;79.91;101577.88;5051734;28;19968;-34
2022/08/22 04:59:32;;;;;;;;;;;;;;;16.72;79.88;101589.41;5052165;28;19913;-34
2022/08/22 05:02:04;;;;;;;;;;;;;;;16.75;80.15;101585.34;5051775;28;20257;-35
2022/08/22 05:04:38;;;;;;;;;;;;;;;16.77;79.64;101587.81;5051322;28;19919;-34
2022/08/22 05:07:19;;;;;;;;;;;;;;;16.80;80.14;101584.59;5052026;28;19913;-35
2022/08/22 05:09:47;;;;;;;;;;;;;;;16.82;80.44;101587.88;5051336;28;20292;-34
2022/08/22 05:12:17;;;;;;;;;;;;;;;16.83;80.66;101584.88;5034590;28;20341;-35
2022/08/22 05:14:45;;;;;;;;;;;;;;;16.87;80.62;101590.69;5051673;28;19917;-34
2022/08/22 05:17:13;;;;;;;;;;;;;;;16.89;80.44;101589.34;5051623;28;19912;-35
2022/08/22 05:19:41;;;;;;;;;;;;;;;16.92;80.60;101590.72;5051043;28;20388;-35
2022/08/22 05:22:12;;;;;;;;;;;;;;;16.94;80.61;101581.22;5050971;28;19970;-34
2022/08/22 05:24:41;;;;;;;;;;;;;;;16.97;80.28;101590.78;5050934;28;20402;-34
2022/08/22 05:27:11;;;;;;;;;;;;;;;17.00;80.37;101584.81;5051080;28;19923;-35
2022/08/22 05:29:38;;;;;;;;;;;;;;;17.06;80.36;101588.44;5068055;28;19932;-34
2022/08/22 05:32:06;;;;;;;;;;;;;;;17.09;80.48;101591.50;5073901;28;19912;-34
2022/08/22 05:34:35;;;;;;;;;;;;;;;17.13;81.98;101599.97;5073083;28;20325;-34
2022/08/22 05:37:06;;;;;;;;;;;;;;;17.05;83.79;101604.00;5073555;28;20280;-34
2022/08/22 05:39:32;;;;;;;;;;;;;;;17.01;82.91;101610.25;5073285;28;19920;-35
2022/08/22 05:41:59;;;;;;;;;;;;;;;17.04;82.35;101617.94;5073322;28;19913;-34
2022/08/22 05:44:25;;;;;;;;;;;;;;;17.07;81.36;101612.75;5072956;28;20368;-34
2022/08/22 05:46:57;;;;;;;;;;;;;;;17.12;81.55;101604.63;5073622;28;19936;-35
2022/08/22 05:49:37;;;;;;;;;;;;;;;17.14;82.18;101604.38;5073086;28;20382;-35
2022/08/22 05:52:06;;;;;;;;;;;;;;;17.12;82.42;101599.16;5073172;28;20247;-34
2022/08/22 05:54:33;;;;;;;;;;;;;;;17.11;82.79;101605.72;5073852;28;19966;-35
2022/08/22 05:57:07;;;;;;;;;;;;;;;17.14;83.29;101607.94;5073221;28;20332;-35
2022/08/22 05:59:34;;;;;;;;;;;;;;;17.11;82.68;101597.50;5073898;28;19913;-35
2022/08/22 06:02:06;;;;;;;;;;;;;;;17.14;85.46;101596.19;5073553;28;20318;-35
2022/08/22 06:04:34;;;;;;;;;;;;;;;17.13;84.34;101592.63;5073571;28;20011;-35
2022/08/22 06:07:00;;;;;;;;;;;;;;;17.13;83.29;101595.38;5073520;28;19982;-35
2022/08/22 06:09:28;;;;;;;;;;;;;;;17.18;83.86;101598.16;5077132;28;20032;-35
2022/08/22 06:12:02;;;;;;;;;;;;;;;17.22;83.49;101602.00;5077249;28;19912;-35
2022/08/22 06:14:30;;;;;;;;;;;;;;;17.27;83.41;101606.69;5077557;28;19916;-35
2022/08/22 06:17:14;;;;;;;;;;;;;;;17.28;85.48;101591.97;5076787;28;20007;-35
2022/08/22 06:19:51;;;;;;;;;;;;;;;17.30;84.43;101610.84;5077044;28;19920;-35
2022/08/22 06:22:24;;;;;;;;;;;;;;;17.35;84.10;101614.44;5077010;28;19916;-34
2022/08/22 06:24:50;;;;;;;;;;;;;;;17.36;85.51;101605.16;5076743;28;20364;-35
2022/08/22 06:27:19;;;;;;;;;;;;;;;17.35;85.63;101613.63;5077054;28;19913;-34
2022/08/22 06:29:47;;;;;;;;;;;;;;;17.36;85.55;101613.34;5076844;28;19912;-35
2022/08/22 06:32:15;;;;;;;;;;;;;;;17.39;86.08;101612.84;5077423;28;19956;-35
2022/08/22 06:34:42;;;;;;;;;;;;;;;17.45;85.28;101622.75;5076555;28;19973;-35
2022/08/22 06:37:10;;;;;;;;;;;;;;;17.50;85.33;101622.81;5077283;28;19955;-35
2022/08/22 06:39:39;;;;;;;;;;;;;;;17.56;85.30;101620.94;5077240;28;19913;-35
2022/08/22 06:42:21;;;;;;;;;;;;;;;17.65;85.19;101624.03;5076943;28;20253;-35
2022/08/22 06:44:59;;;;;;;;;;;;;;;17.70;84.32;101619.44;5076603;28;19923;-35
2022/08/22 06:47:27;;;;;;;;;;;;;;;17.78;84.08;101620.09;5076521;28;19912;-35
2022/08/22 06:49:56;;;;;;;;;;;;;;;17.85;84.67;101626.16;5076393;28;19999;-35
2022/08/22 06:52:23;;;;;;;;;;;;;;;17.87;85.99;101624.81;5077073;28;19913;-34
2022/08/22 06:54:52;;;;;;;;;;;;;;;17.85;85.53;101624.25;5076414;28;19913;-34
2022/08/22 06:57:30;;;;;;;;;;;;;;;17.89;84.21;101625.38;5076241;28;20428;-34
2022/08/22 06:59:56;;;;;;;;;;;;;;;17.98;84.48;101628.47;5076145;28;19912;-34
2022/08/22 07:02:25;;;;;;;;;;;;;;;18.02;84.51;101624.94;5076104;28;20348;-35
2022/08/22 07:04:50;;;;;;;;;;;;;;;18.05;85.61;101634.53;5076107;28;19978;-34
2022/08/22 07:07:22;;;;;;;;;;;;;;;18.08;86.42;101641.41;5075832;28;19917;-34
2022/08/22 07:09:54;;;;;;;;;;;;;;;18.06;85.57;101651.81;5075629;28;20368;-34
2022/08/22 07:12:20;;;;;;;;;;;;;;;18.12;84.83;101645.28;5076013;28;20321;-34
2022/08/22 07:14:48;;;;;;;;;;;;;;;18.19;84.85;101637.66;5076624;28;19920;-34
2022/08/22 07:17:18;;;;;;;;;;;;;;;18.24;84.42;101641.25;5076361;28;19959;-34
2022/08/22 07:20:03;;;;;;;;;;;;;;;18.30;85.08;101638.53;5074590;28;19951;-33
2022/08/22 07:22:31;;;;;;;;;;;;;;;18.34;84.82;101642.41;5076091;28;20471;-34
2022/08/22 07:25:08;;;;;;;;;;;;;;;18.39;85.01;101635.03;5075312;28;19970;-34
2022/08/22 07:27:45;;;;;;;;;;;;;;;18.40;85.02;101631.25;5076433;28;19912;-34
2022/08/22 07:30:12;;;;;;;;;;;;;;;18.39;85.57;101634.22;5075463;28;19913;-34
2022/08/22 07:32:48;;;;;;;;;;;;;;;18.46;85.09;101629.34;5076417;28;20367;-34
2022/08/22 07:35:16;;;;;;;;;;;;;;;18.62;85.42;101633.00;5076227;28;20291;-35
2022/08/22 07:38:00;;;;;;;;;;;;;;;18.72;84.15;101622.94;5075706;28;19913;-35
2022/08/22 07:40:37;;;;;;;;;;;;;;;18.84;84.61;101630.09;5076245;28;19934;-35
2022/08/22 07:43:11;;;;;;;;;;;;;;;18.98;84.62;101618.41;5075882;28;19919;-34
2022/08/22 07:45:46;;;;;;;;;;;;;;;19.15;83.92;101620.09;5075873;28;19916;-34
2022/08/22 07:48:14;;;;;;;;;;;;;;;19.24;83.39;101615.75;5075604;28;19935;-34
2022/08/22 07:50:44;;;;;;;;;;;;;;;19.33;83.11;101611.38;5075337;28;19913;-35
2022/08/22 07:53:33;;;;;;;;;;;;;;;19.39;82.34;101615.78;5075668;28;19919;-34
2022/08/22 07:55:59;;;;;;;;;;;;;;;19.45;82.98;101619.34;5072221;28;19943;-34
2022/08/22 07:58:27;;;;;;;;;;;;;;;19.46;82.73;101613.59;5074898;28;20384;-35
2022/08/22 08:00:53;;;;;;;;;;;;;;;19.48;83.54;101607.84;5075257;28;19963;-35
2022/08/22 08:03:20;;;;;;;;;;;;;;;19.41;83.20;101610.84;5074660;28;19912;-35
2022/08/22 08:05:46;;;;;;;;;;;;;;;19.51;83.32;101612.78;5074515;28;19969;-35
2022/08/22 08:08:16;;;;;;;;;;;;;;;19.60;83.42;101611.16;5075539;28;19980;-35
2022/08/22 08:10:41;;;;;;;;;;;;;;;19.62;82.99;101610.88;5074551;28;20012;-35
2022/08/22 08:13:09;;;;;;;;;;;;;;;19.67;82.84;101610.91;5074617;28;19958;-35
2022/08/22 08:15:36;;;;;;;;;;;;;;;19.71;82.88;101601.84;5075582;28;19920;-35
2022/08/22 08:18:07;;;;;;;;;;;;;;;19.82;82.27;101599.13;5074400;28;19912;-34
2022/08/22 08:20:34;;;;;;;;;;;;;;;19.94;82.09;101596.91;5074977;28;19913;-35
2022/08/22 08:23:00;;;;;;;;;;;;;;;20.07;81.77;101599.09;5074982;28;19913;-34
2022/08/22 08:25:28;;;;;;;;;;;;;;;20.14;81.65;101588.66;5074541;28;20019;-35
2022/08/22 08:30:42;;;;;;;;;;;;;;;20.40;81.07;101586.69;5074126;28;20057;-35
2022/08/22 08:33:11;;;;;;;;;;;;;;;20.53;81.21;101585.28;5074802;28;19962;-35
2022/08/22 08:35:39;;;;;;;;;;;;;;;20.69;80.68;101584.16;5074362;28;19926;-35
2022/08/22 08:38:10;;;;;;;;;;;;;;;20.82;79.69;101574.47;5062717;28;19920;-35
2022/08/22 08:40:58;;;;;;;;;;;;;;;21.01;79.33;101586.47;5074449;28;19916;-34
2022/08/22 08:43:38;;;;;;;;;;;;;;;21.25;79.31;101586.59;5032523;28;20007;-35
2022/08/22 08:46:13;;;;;;;;;;;;;;;21.42;76.74;101585.41;5016196;28;20297;-35
2022/08/22 08:48:56;;;;;;;;;;;;;;;21.47;77.74;101582.63;5031823;28;19913;-35
2022/08/22 08:51:40;;;;;;;;;;;;;;;21.56;76.40;101584.47;5032097;28;20349;-35
2022/08/22 08:54:23;;;;;;;;;;;;;;;21.75;75.83;101581.84;5032246;28;20031;-35
2022/08/22 08:57:07;;;;;;;;;;;;;;;21.95;72.03;101575.34;5032019;28;19913;-35
2022/08/22 08:59:39;;;;;;;;;;;;;;;22.10;73.06;101572.44;5031850;28;19913;-35
2022/08/22 09:02:07;;;;;;;;;;;;;;;22.22;70.70;101568.53;5031884;28;20019;-35
2022/08/22 09:05:06;;;;;;;;;;;;;;;22.17;67.69;101571.31;5031925;28;19924;-35
2022/08/22 09:07:49;;;;;;;;;;;;;;;22.17;65.92;101563.88;5032100;28;20012;-35
2022/08/22 09:10:33;;;;;;;;;;;;;;;22.22;65.14;101560.25;5031494;28;19924;-35
2022/08/22 09:12:59;;;;;;;;;;;;;;;22.31;69.22;101564.00;5031431;28;19913;-35
2022/08/22 09:15:33;;;;;;;;;;;;;;;22.34;69.54;101561.47;5014903;28;19923;-35
2022/08/22 09:18:11;;;;;;;;;;;;;;;22.36;68.37;101558.44;5032120;28;20312;-35
2022/08/22 09:20:48;;;;;;;;;;;;;;;22.39;67.55;101562.53;5044611;28;19917;-35
2022/08/22 09:23:32;;;;;;;;;;;;;;;22.41;63.28;101563.06;5053698;28;19924;-35
2022/08/22 09:26:04;;;;;;;;;;;;;;;22.34;63.11;101553.22;5054137;28;19919;-35
2022/08/22 09:28:30;;;;;;;;;;;;;;;22.25;61.96;101554.13;5053462;28;20006;-35
2022/08/22 09:31:04;;;;;;;;;;;;;;;22.25;63.21;101560.50;5053472;28;19913;-35
2022/08/22 09:33:48;;;;;;;;;;;;;;;22.31;64.79;101564.00;5053431;28;19919;-35
2022/08/22 09:36:24;;;;;;;;;;;;;;;22.32;62.44;101566.47;5053812;28;20407;-35
2022/08/22 09:39:09;;;;;;;;;;;;;;;22.41;64.28;101557.56;5053256;28;19912;-35
2022/08/22 09:41:37;;;;;;;;;;;;;;;22.46;60.69;101563.03;5053870;28;20006;-35
2022/08/22 09:44:14;;;;;;;;;;;;;;;22.49;62.20;101565.16;5052712;28;20315;-35
2022/08/22 09:46:40;;;;;;;;;;;;;;;22.50;60.93;101561.31;5053273;28;19919;-35
2022/08/22 09:49:11;;;;;;;;;;;;;;;22.47;60.86;101565.47;5053262;28;19996;-35
2022/08/22 09:51:57;;;;;;;;;;;;;;;22.55;62.95;101564.00;5053178;28;19924;-35
2022/08/22 09:54:28;;;;;;;;;;;;;;;22.61;60.22;101563.66;5053308;28;19960;-35
2022/08/22 09:56:57;;;;;;;;;;;;;;;22.71;59.71;101559.13;5052782;28;19912;-35
2022/08/22 09:59:22;;;;;;;;;;;;;;;22.61;57.50;101551.81;5053140;28;19920;-35
2022/08/22 10:01:56;;;;;;;;;;;;;;;22.73;61.01;101554.94;5053854;28;19913;-35
2022/08/22 10:04:37;;;;;;;;;;;;;;;22.90;61.95;101559.19;5053916;28;19919;-35
2022/08/22 10:07:12;;;;;;;;;;;;;;;23.05;60.29;101550.69;5053520;28;20296;-35
2022/08/22 10:09:52;;;;;;;;;;;;;;;22.99;55.18;101555.47;5053154;28;19913;-35
2022/08/22 10:12:22;;;;;;;;;;;;;;;23.12;59.01;101551.94;5053381;28;19958;-35
2022/08/22 10:14:48;;;;;;;;;;;;;;;23.21;58.42;101546.59;5053407;28;19920;-35
2022/08/22 10:17:17;;;;;;;;;;;;;;;23.18;55.63;101540.84;5052948;28;20361;-35
2022/08/22 10:20:06;;;;;;;;;;;;;;;23.23;55.14;101536.09;5053045;28;19951;-35
2022/08/22 10:22:33;;;;;;;;;;;;;;;23.20;54.89;101544.94;5070743;28;19919;-35
2022/08/22 10:25:18;;;;;;;;;;;;;;;23.35;57.01;101533.66;5070999;28;19912;-35
2022/08/22 10:27:46;;;;;;;;;;;;;;;23.37;54.33;101544.41;5070702;28;19997;-35
2022/08/22 10:30:16;;;;;;;;;;;;;;;23.51;57.04;101531.47;5070495;28;19932;-34
2022/08/22 10:33:00;;;;;;;;;;;;;;;23.66;57.59;101530.44;5070691;28;20335;-35
2022/08/22 10:35:34;;;;;;;;;;;;;;;23.54;51.96;101530.88;5070532;28;19912;-35
2022/08/22 10:38:05;;;;;;;;;;;;;;;23.62;54.59;101532.16;5070341;28;19921;-34
2022/08/22 10:40:50;;;;;;;;;;;;;;;23.78;55.85;101525.25;5070631;28;19913;-34
2022/08/22 10:43:18;;;;;;;;;;;;;;;23.92;52.93;101532.75;5070334;28;20518;-35
2022/08/22 10:45:45;;;;;;;;;;;;;;;24.02;53.91;101525.09;5070987;28;20034;-34
2022/08/22 10:48:17;;;;;;;;;;;;;;;23.79;50.50;101526.06;5070391;28;19916;-35
2022/08/22 10:50:50;;;;;;;;;;;;;;;23.76;51.47;101521.97;5070251;28;19920;-35
2022/08/22 10:53:29;;;;;;;;;;;;;;;23.71;52.20;101513.75;5070524;28;20202;-35
2022/08/22 10:56:16;;;;;;;;;;;;;;;23.62;50.57;101516.41;5074038;28;19912;-34
2022/08/22 10:58:47;;;;;;;;;;;;;;;23.71;52.18;101513.75;5071349;28;19922;-35
2022/08/22 11:01:15;;;;;;;;;;;;;;;24.09;52.21;101514.44;5056173;28;19919;-35
2022/08/22 11:03:51;;;;;;;;;;;;;;;24.13;47.60;101509.13;5056741;28;19912;-35
2022/08/22 11:06:23;;;;;;;;;;;;;;;24.42;49.04;101505.28;5056692;28;19917;-35
2022/08/22 11:09:06;;;;;;;;;;;;;;;24.64;50.79;101506.19;5056238;28;19913;-35
2022/08/22 11:11:38;;;;;;;;;;;;;;;24.90;50.16;101505.59;5056028;28;19916;-35
2022/08/22 11:14:22;;;;;;;;;;;;;;;24.88;47.35;101503.13;5055604;28;20399;-34
2022/08/22 11:16:55;;;;;;;;;;;;;;;24.76;49.84;101505.63;5056207;28;20292;-34
2022/08/22 11:19:23;;;;;;;;;;;;;;;24.78;50.96;101503.34;5055883;28;19912;-34
2022/08/22 11:22:06;;;;;;;;;;;;;;;24.84;50.96;101502.13;5056428;28;20269;-34
2022/08/22 11:24:50;;;;;;;;;;;;;;;24.89;50.81;101502.03;5056381;28;20357;-35
2022/08/22 11:27:32;;;;;;;;;;;;;;;24.99;50.41;101502.91;5056531;28;20280;-34
2022/08/22 11:30:00;;;;;;;;;;;;;;;25.01;49.03;101506.19;5055612;28;20371;-35
2022/08/22 11:32:34;;;;;;;;;;;;;;;25.02;49.85;101491.22;5055960;28;19951;-35
2022/08/22 11:35:05;;;;;;;;;;;;;;;24.83;46.40;101502.44;5055644;28;19959;-34
2022/08/22 11:37:49;;;;;;;;;;;;;;;24.76;48.71;101494.56;5056244;28;19966;-35
2022/08/22 11:40:18;;;;;;;;;;;;;;;24.59;46.09;101497.97;5055447;28;19919;-34
2022/08/22 11:42:46;;;;;;;;;;;;;;;24.59;47.84;101492.44;5055397;28;19919;-34
2022/08/22 11:45:17;;;;;;;;;;;;;;;24.56;47.13;101495.03;5055992;28;19913;-34
2022/08/22 11:48:08;;;;;;;;;;;;;;;24.40;46.86;101494.50;5055337;28;19912;-35
2022/08/22 11:50:37;;;;;;;;;;;;;;;24.46;48.77;101492.47;5055230;28;19923;-35
2022/08/22 11:53:11;;;;;;;;;;;;;;;24.19;46.25;101496.84;5054938;28;19974;-35
2022/08/22 11:55:42;;;;;;;;;;;;;;;24.32;48.97;101496.03;5055673;28;19912;-35
2022/08/22 11:58:10;;;;;;;;;;;;;;;24.28;47.05;101488.66;5055403;28;20011;-35
2022/08/22 12:00:48;;;;;;;;;;;;;;;24.31;48.38;101488.88;5055363;28;19919;-35
2022/08/22 12:03:14;;;;;;;;;;;;;;;24.27;49.79;101489.78;5053793;28;19913;-35
2022/08/22 12:06:12;;;;;;;;;;;;;;;24.26;47.28;101483.44;5055099;28;20026;-35
2022/08/22 12:08:41;;;;;;;;;;;;;;;24.33;47.40;101491.31;5072578;28;20011;-35
2022/08/22 12:11:06;;;;;;;;;;;;;;;24.37;49.46;101489.63;5072382;28;19967;-35
2022/08/22 12:13:34;;;;;;;;;;;;;;;24.46;49.79;101490.53;5072325;28;19956;-35
2022/08/22 12:16:12;;;;;;;;;;;;;;;24.54;48.80;101491.72;5073062;28;19912;-36
2022/08/22 12:18:46;;;;;;;;;;;;;;;24.58;49.01;101495.53;5072373;28;19921;-35
2022/08/22 12:21:34;;;;;;;;;;;;;;;24.60;47.95;101488.56;5072359;28;19913;-36
2022/08/22 12:24:18;;;;;;;;;;;;;;;24.63;47.25;101490.69;5072392;28;20347;-36
2022/08/22 12:27:02;;;;;;;;;;;;;;;24.61;48.59;101484.66;5072258;28;19913;-36
2022/08/22 12:29:32;;;;;;;;;;;;;;;24.61;47.10;101486.63;5072101;28;19970;-35
2022/08/22 12:32:17;;;;;;;;;;;;;;;24.64;48.92;101488.75;5072328;28;19912;-35
2022/08/22 12:34:42;;;;;;;;;;;;;;;24.73;49.57;101486.06;5072827;28;19913;-35
2022/08/22 12:37:16;;;;;;;;;;;;;;;24.81;49.49;101483.38;5072447;28;19922;-36
2022/08/22 12:39:50;;;;;;;;;;;;;;;24.86;48.40;101485.22;5071902;28;19913;-35
2022/08/22 12:42:30;;;;;;;;;;;;;;;24.88;48.26;101481.00;5071990;28;20403;-36
2022/08/22 12:45:09;;;;;;;;;;;;;;;24.88;48.57;101478.22;5057750;28;20418;-36
2022/08/22 12:47:53;;;;;;;;;;;;;;;24.87;48.26;101476.59;5054994;28;19970;-36
2022/08/22 12:50:26;;;;;;;;;;;;;;;24.85;49.85;101480.81;5053874;28;19916;-35
2022/08/22 12:53:07;;;;;;;;;;;;;;;24.83;50.10;101474.75;5053906;28;19913;-36
2022/08/22 12:55:51;;;;;;;;;;;;;;;24.82;48.71;101470.38;5054586;28;20035;-36
2022/08/22 12:58:30;;;;;;;;;;;;;;;24.82;50.29;101470.38;5053690;28;19916;-35
2022/08/22 13:00:59;;;;;;;;;;;;;;;24.84;50.29;101465.34;5054738;28;20268;-36
2022/08/22 13:03:31;;;;;;;;;;;;;;;24.81;48.43;101468.75;5054106;28;19943;-36
2022/08/22 13:05:58;;;;;;;;;;;;;;;24.77;49.60;101463.00;5054034;28;20459;-36
2022/08/22 13:08:29;;;;;;;;;;;;;;;24.78;50.12;101459.09;5053827;28;19913;-36
2022/08/22 13:11:06;;;;;;;;;;;;;;;24.83;50.72;101456.22;5053493;28;20365;-36